createdAt,value
2023-04-12T00:03:08.044Z,12.04
2023-04-12T00:08:11.524Z,12.01
2023-04-12T00:13:14.121Z,11.89
2023-04-12T00:18:16.656Z,11.87
2023-04-12T00:23:19.220Z,11.75
2023-04-12T00:28:21.765Z,11.72
2023-04-12T00:33:26.132Z,11.70
2023-04-12T00:38:28.687Z,11.70
2023-04-12T00:43:31.708Z,11.69
2023-04-12T00:48:34.579Z,11.71
2023-04-12T00:53:40.041Z,11.76
2023-04-12T00:58:42.931Z,11.80
2023-04-12T01:03:46.559Z,11.80
2023-04-12T01:09:06.260Z,11.78
2023-04-12T01:14:22.823Z,11.83
2023-04-12T01:25:24.397Z,11.88
2023-04-12T01:30:29.339Z,11.79
2023-04-12T01:35:34.961Z,11.83
2023-04-12T01:40:40.849Z,11.89
2023-04-12T01:45:43.405Z,11.79
2023-04-12T01:51:10.773Z,11.80
2023-04-12T01:56:15.963Z,11.82
2023-04-12T02:01:19.755Z,11.88
2023-04-12T02:06:23.263Z,11.88
2023-04-12T02:11:28.406Z,11.92
2023-04-12T02:16:32.524Z,11.93
2023-04-12T02:21:45.156Z,11.93
2023-04-12T02:26:50.010Z,11.95
2023-04-12T02:31:53.410Z,11.85
2023-04-12T02:36:59.102Z,11.92
2023-04-12T02:42:01.944Z,11.93
2023-04-12T02:47:05.305Z,12.00
2023-04-12T02:52:09.625Z,12.02
2023-04-12T02:57:21.853Z,12.08
2023-04-12T03:02:24.701Z,12.14
2023-04-12T03:07:32.915Z,12.23
2023-04-12T03:12:35.766Z,12.23
2023-04-12T03:17:49.933Z,12.17
2023-04-12T03:22:55.754Z,12.26
2023-04-12T03:27:58.374Z,12.27
2023-04-12T03:33:14.087Z,12.22
2023-04-12T03:38:17.630Z,12.17
2023-04-12T03:43:20.544Z,12.32
2023-04-12T03:48:23.215Z,12.34
2023-04-12T03:53:28.175Z,12.40
2023-04-12T03:58:31.403Z,12.44
2023-04-12T04:03:35.505Z,12.56
2023-04-12T04:08:48.106Z,12.67
2023-04-12T04:13:51.042Z,12.64
2023-04-12T04:18:55.645Z,12.66
2023-04-12T04:24:01.334Z,12.56
2023-04-12T04:29:08.872Z,12.58
2023-04-12T04:34:14.755Z,12.51
2023-04-12T04:39:20.903Z,12.54
2023-04-12T04:44:23.480Z,12.51
2023-04-12T04:49:31.481Z,12.46
2023-04-12T04:54:40.204Z,12.63
2023-04-12T04:59:44.224Z,12.75
2023-04-12T05:04:51.457Z,12.81
2023-04-12T05:09:57.952Z,12.89
2023-04-12T05:15:11.177Z,12.93
2023-04-12T05:20:15.139Z,12.99
2023-04-12T05:25:20.128Z,13.08
2023-04-12T05:30:30.248Z,13.07
2023-04-12T05:35:33.975Z,13.00
2023-04-12T05:40:36.615Z,13.05
2023-04-12T05:45:41.502Z,13.18
2023-04-12T05:50:52.225Z,13.32
2023-04-12T05:55:56.136Z,13.40
2023-04-12T06:00:59.687Z,13.76
2023-04-12T06:06:02.714Z,14.06
2023-04-12T06:11:05.981Z,14.31
2023-04-12T06:16:08.773Z,14.58
2023-04-12T06:21:13.070Z,14.85
2023-04-12T06:26:18.543Z,15.15
2023-04-12T06:31:21.944Z,15.30
2023-04-12T06:36:25.352Z,15.45
2023-04-12T06:41:29.292Z,15.58
2023-04-12T06:46:36.419Z,15.69
2023-04-12T06:51:42.092Z,15.79
2023-04-12T06:56:51.906Z,15.95
2023-04-12T07:01:54.598Z,16.30
2023-04-12T07:06:57.259Z,16.39
2023-04-12T07:12:01.496Z,16.66
2023-04-12T07:17:04.397Z,16.77
2023-04-12T07:22:17.972Z,16.96
2023-04-12T07:27:20.545Z,17.17
2023-04-12T07:32:23.508Z,17.04
2023-04-12T07:37:26.579Z,17.00
2023-04-12T07:42:29.384Z,16.97
2023-04-12T07:47:33.854Z,16.84
2023-04-12T07:52:39.603Z,16.86
2023-04-12T07:57:42.286Z,16.89
2023-04-12T08:02:45.168Z,16.92
2023-04-12T08:07:48.002Z,17.11
2023-04-12T08:12:59.542Z,17.20
2023-04-12T08:18:04.539Z,17.32
2023-04-12T08:23:10.568Z,17.39
2023-04-12T08:35:15.222Z,17.60
2023-04-12T08:40:25.519Z,17.32
2023-04-12T08:45:34.650Z,17.01
2023-04-12T08:50:43.002Z,16.77
2023-04-12T08:55:46.751Z,16.86
2023-04-12T09:00:49.574Z,16.81
2023-04-12T09:05:53.400Z,16.88
2023-04-12T09:10:56.102Z,16.96
2023-04-12T09:15:58.719Z,17.17
2023-04-12T09:21:10.818Z,17.25
2023-04-12T09:26:31.660Z,17.28
2023-04-12T09:31:34.443Z,17.21
2023-04-12T09:36:39.854Z,17.12
2023-04-12T09:41:42.509Z,16.87
2023-04-12T09:46:52.354Z,16.81
2023-04-12T09:51:55.659Z,16.43
2023-04-12T09:57:01.159Z,16.37
2023-04-12T10:02:18.610Z,16.27
2023-04-12T10:13:03.397Z,16.32
2023-04-12T10:23:48.426Z,16.39
2023-04-12T10:41:33.562Z,17.10
2023-04-12T11:15:18.736Z,17.81
2023-04-12T11:20:38.798Z,17.95
2023-04-12T11:31:23.840Z,17.86
2023-04-12T11:36:53.848Z,17.88
2023-04-12T11:47:38.984Z,18.34
2023-04-12T11:52:58.943Z,18.46
2023-04-12T12:03:44.433Z,18.84
2023-04-12T12:09:14.179Z,18.93
2023-04-12T12:20:09.145Z,19.09
2023-04-12T12:25:29.210Z,19.32
2023-04-12T12:30:49.213Z,19.19
2023-04-12T12:36:09.242Z,19.75
2023-04-12T12:41:29.285Z,19.87
2023-04-12T12:46:56.809Z,19.73
2023-04-12T13:03:19.834Z,19.45
2023-04-12T13:08:49.466Z,19.33
2023-04-12T13:14:09.520Z,19.26
2023-04-12T13:19:29.519Z,19.30
2023-04-12T13:30:14.589Z,19.26
2023-04-12T13:35:34.935Z,19.38
2023-04-12T13:40:54.642Z,19.31
2023-04-12T13:46:14.726Z,19.08
2023-04-12T13:51:34.735Z,18.95
2023-04-12T13:57:04.762Z,18.91
2023-04-12T14:02:24.861Z,18.85
2023-04-12T14:07:54.851Z,18.92
2023-04-12T14:13:14.906Z,18.90
2023-04-12T14:18:35.098Z,18.85
2023-04-12T14:23:55.127Z,18.76
2023-04-12T14:29:15.047Z,18.66
2023-04-12T14:34:35.027Z,18.49
2023-04-12T14:39:55.104Z,18.36
2023-04-12T14:45:35.161Z,18.22
2023-04-12T14:50:55.215Z,18.09
2023-04-12T15:07:15.345Z,17.76
2023-04-12T15:12:35.391Z,17.44
2023-04-12T15:17:53.488Z,17.26
2023-04-12T15:23:13.479Z,17.03
2023-04-12T15:28:30.551Z,16.80
2023-04-12T15:33:46.947Z,16.65
2023-04-12T15:39:03.660Z,16.52
2023-04-12T15:44:23.777Z,16.37
2023-04-12T15:49:48.746Z,16.22
2023-04-12T15:55:09.087Z,16.10
2023-04-12T16:00:30.728Z,16.03
2023-04-12T16:05:49.101Z,15.85
2023-04-12T16:11:08.270Z,15.81
2023-04-12T16:16:32.152Z,15.70
2023-04-12T16:22:01.581Z,15.64
2023-04-12T16:27:22.302Z,15.60
2023-04-12T16:32:41.548Z,15.55
2023-04-12T16:38:01.590Z,15.46
2023-04-12T16:43:21.055Z,15.33
2023-04-12T16:48:48.108Z,15.34
2023-04-12T16:54:07.169Z,15.23
2023-04-12T16:59:26.926Z,15.25
2023-04-12T17:10:10.295Z,15.15
2023-04-12T17:15:31.220Z,15.15
2023-04-12T17:20:50.694Z,14.95
2023-04-12T17:26:07.637Z,14.94
2023-04-12T17:31:27.690Z,14.82
2023-04-12T17:36:57.148Z,14.80
2023-04-12T17:42:15.736Z,14.72
2023-04-12T17:47:46.631Z,14.64
2023-04-12T17:53:18.036Z,14.59
2023-04-12T17:58:35.244Z,14.47
2023-04-12T18:03:56.031Z,14.44
2023-04-12T18:09:18.236Z,14.47
2023-04-12T18:14:37.683Z,14.47
2023-04-12T18:19:59.058Z,14.41
2023-04-12T18:25:19.191Z,14.45
2023-04-12T18:30:38.507Z,14.44
2023-04-12T18:35:59.491Z,14.42
2023-04-12T18:41:22.714Z,14.47
2023-04-12T18:46:52.763Z,14.41
2023-04-12T18:52:10.508Z,14.50
2023-04-12T18:57:30.634Z,14.50
2023-04-12T19:02:50.962Z,14.54
2023-04-12T19:13:35.430Z,14.49
2023-04-12T19:18:51.785Z,14.48
2023-04-12T19:24:10.443Z,14.52
2023-04-12T19:29:30.854Z,14.46
2023-04-12T19:34:48.306Z,14.40
2023-04-12T19:40:20.501Z,14.36
2023-04-12T19:45:38.948Z,14.29
2023-04-12T19:50:58.449Z,14.27
2023-04-12T19:56:16.938Z,14.23
2023-04-12T20:01:35.860Z,14.30
2023-04-12T20:06:55.746Z,14.31
2023-04-12T20:12:24.145Z,14.27
2023-04-12T20:17:54.280Z,14.33
2023-04-12T20:23:10.716Z,14.25
2023-04-12T20:28:31.325Z,14.26
2023-04-12T20:33:48.482Z,14.29
2023-04-12T20:39:09.182Z,14.15
2023-04-12T20:44:28.435Z,14.12
2023-04-12T20:49:46.437Z,14.06
2023-04-12T20:55:06.004Z,14.04
2023-04-12T21:00:24.836Z,14.01
2023-04-12T21:05:42.374Z,13.91
2023-04-12T21:16:35.603Z,13.75
2023-04-12T21:21:55.775Z,13.78
2023-04-12T21:27:17.789Z,13.70
2023-04-12T21:32:39.372Z,13.83
2023-04-12T21:38:00.253Z,13.85
2023-04-12T21:43:16.941Z,13.87
2023-04-12T21:48:34.572Z,13.93
2023-04-12T21:53:51.113Z,14.01
2023-04-12T21:59:17.742Z,13.84
2023-04-12T22:04:38.623Z,13.76
2023-04-12T22:10:00.402Z,13.81
2023-04-12T22:15:31.130Z,13.78
2023-04-12T22:20:50.957Z,13.77
2023-04-12T22:26:13.451Z,13.67
2023-04-12T22:31:35.219Z,13.67
2023-04-12T22:37:01.316Z,13.60
2023-04-12T22:42:18.753Z,13.59
2023-04-12T22:47:39.632Z,13.50
2023-04-12T22:52:59.096Z,13.38
2023-04-12T22:58:19.884Z,13.39
2023-04-12T23:03:40.627Z,13.40
2023-04-12T23:09:07.410Z,13.43
2023-04-12T23:19:47.169Z,13.36
2023-04-12T23:25:04.421Z,13.35
2023-04-12T23:30:23.939Z,12.77
2023-04-12T23:35:48.377Z,12.17
2023-04-12T23:41:09.063Z,11.86
2023-04-12T23:46:28.267Z,11.91
2023-04-12T23:51:56.003Z,11.85
2023-04-12T23:57:13.640Z,11.83
